createdAt,value
2023-01-04T00:04:48.727Z,10.40
2023-01-04T00:09:52.911Z,10.40
2023-01-04T00:14:55.758Z,10.40
2023-01-04T00:19:58.621Z,10.50
2023-01-04T00:25:03.008Z,10.40
2023-01-04T00:30:06.689Z,10.40
2023-01-04T00:35:10.294Z,10.50
2023-01-04T00:40:14.753Z,10.40
2023-01-04T00:45:17.622Z,10.40
2023-01-04T00:50:20.490Z,10.50
2023-01-04T00:55:24.735Z,10.50
2023-01-04T01:00:27.588Z,10.50
2023-01-04T01:05:30.439Z,10.50
2023-01-04T01:10:35.732Z,10.20
2023-01-04T01:15:38.637Z,9.60
2023-01-04T01:20:46.048Z,9.00
2023-01-04T01:25:50.264Z,8.50
2023-01-04T01:30:53.211Z,8.30
2023-01-04T01:35:56.087Z,8.00
2023-01-04T01:41:00.364Z,8.00
2023-01-04T01:46:03.262Z,8.00
2023-01-04T01:51:07.162Z,8.00
2023-01-04T01:56:11.758Z,8.10
2023-01-04T02:01:14.957Z,7.80
2023-01-04T02:06:22.351Z,7.70
2023-01-04T02:11:28.710Z,7.40
2023-01-04T02:16:41.464Z,7.20
2023-01-04T02:21:58.471Z,7.00
2023-01-04T02:27:40.689Z,7.00
2023-01-04T02:32:57.761Z,6.90
2023-01-04T02:38:11.185Z,7.00
2023-01-04T02:43:39.058Z,7.10
2023-01-04T02:49:00.831Z,7.00
2023-01-04T02:54:07.746Z,6.80
2023-01-04T02:59:31.817Z,6.90
2023-01-04T03:05:04.268Z,6.90
2023-01-04T03:10:13.618Z,7.00
2023-01-04T03:15:21.109Z,7.20
2023-01-04T03:20:28.990Z,7.20
2023-01-04T03:25:53.900Z,7.20
2023-01-04T03:31:29.824Z,7.30
2023-01-04T03:36:48.963Z,7.60
2023-01-04T03:42:14.535Z,7.90
2023-01-04T03:47:39.086Z,8.20
2023-01-04T03:52:45.694Z,8.40
2023-01-04T03:57:49.177Z,8.60
2023-01-04T04:02:52.066Z,8.70
2023-01-04T04:08:13.885Z,8.70
2023-01-04T04:13:16.863Z,8.90
2023-01-04T04:18:19.846Z,8.90
2023-01-04T04:23:24.027Z,9.00
2023-01-04T04:28:27.077Z,9.10
2023-01-04T04:33:34.152Z,9.20
2023-01-04T04:38:38.591Z,9.30
2023-01-04T04:43:41.717Z,9.30
2023-01-04T04:48:44.674Z,9.40
2023-01-04T04:53:48.961Z,9.40
2023-01-04T04:58:52.041Z,9.40
2023-01-04T05:03:54.909Z,9.50
2023-01-04T05:08:59.214Z,9.60
2023-01-04T05:14:02.094Z,9.60
2023-01-04T05:19:05.390Z,9.70
2023-01-04T05:24:11.604Z,9.80
2023-01-04T05:29:35.311Z,9.80
2023-01-04T05:34:38.346Z,9.90
2023-01-04T05:39:42.566Z,9.90
2023-01-04T05:44:45.428Z,10.00
2023-01-04T05:49:49.262Z,10.10
2023-01-04T05:54:53.486Z,10.00
2023-01-04T05:59:56.480Z,10.10
2023-01-04T06:05:01.257Z,10.10
2023-01-04T06:10:06.355Z,10.20
2023-01-04T06:15:11.168Z,10.20
2023-01-04T06:20:14.129Z,10.30
2023-01-04T06:25:18.864Z,10.20
2023-01-04T06:30:21.990Z,10.30
2023-01-04T06:35:24.906Z,10.20
2023-01-04T06:40:29.130Z,10.40
2023-01-04T06:45:32.008Z,10.20
2023-01-04T06:50:35.650Z,10.30
2023-01-04T06:55:40.008Z,10.30
2023-01-04T07:00:42.906Z,10.30
2023-01-04T07:05:46.075Z,10.30
2023-01-04T07:10:50.351Z,10.30
2023-01-04T07:15:53.728Z,10.30
2023-01-04T07:20:56.805Z,10.40
2023-01-04T07:26:06.303Z,10.20
2023-01-04T07:31:09.477Z,10.20
2023-01-04T07:36:12.390Z,10.20
2023-01-04T07:41:16.599Z,10.10
2023-01-04T07:46:19.873Z,10.10
2023-01-04T07:51:22.776Z,10.10
2023-01-04T07:56:27.095Z,10.10
2023-01-04T08:01:30.062Z,10.10
2023-01-04T08:06:33.785Z,10.10
2023-01-04T08:11:38.130Z,10.10
2023-01-04T08:16:43.279Z,10.20
2023-01-04T08:21:46.523Z,10.20
2023-01-04T08:26:50.737Z,10.30
2023-01-04T08:31:53.804Z,10.40
2023-01-04T08:36:56.719Z,10.40
2023-01-04T08:42:10.891Z,10.50
2023-01-04T08:47:21.968Z,10.40
2023-01-04T08:52:24.856Z,10.60
2023-01-04T08:57:29.086Z,10.60
2023-01-04T09:02:32.169Z,10.70
2023-01-04T09:07:35.245Z,10.70
2023-01-04T09:12:39.698Z,10.80
2023-01-04T09:18:05.209Z,10.80
2023-01-04T09:23:05.457Z,10.80
2023-01-04T09:28:09.663Z,10.90
2023-01-04T09:33:12.591Z,10.80
2023-01-04T09:38:15.547Z,10.90
2023-01-04T09:43:23.064Z,10.90
2023-01-04T09:48:30.352Z,11.00
2023-01-04T09:53:38.061Z,11.00
2023-01-04T09:58:43.530Z,11.00
2023-01-04T10:03:54.537Z,11.10
2023-01-04T10:09:03.399Z,11.20
2023-01-04T10:14:21.466Z,11.20
2023-01-04T10:25:08.620Z,11.30
2023-01-04T10:30:31.164Z,11.30
2023-01-04T10:35:34.449Z,11.40
2023-01-04T10:40:40.813Z,11.50
2023-01-04T10:45:51.839Z,11.50
2023-01-04T10:50:58.324Z,11.60
2023-01-04T10:56:25.567Z,11.50
2023-01-04T11:01:37.916Z,11.50
2023-01-04T11:06:46.138Z,11.60
2023-01-04T11:11:51.017Z,11.70
2023-01-04T11:17:00.754Z,11.80
2023-01-04T11:22:12.268Z,11.80
2023-01-04T11:27:25.274Z,11.90
2023-01-04T11:32:39.465Z,11.90
2023-01-04T11:37:43.360Z,12.00
2023-01-04T11:42:47.108Z,12.00
2023-01-04T11:47:53.472Z,12.00
2023-01-04T11:52:56.460Z,12.10
2023-01-04T11:58:11.581Z,12.10
2023-01-04T12:03:19.319Z,12.10
2023-01-04T12:08:32.982Z,12.10
2023-01-04T12:13:36.716Z,12.20
2023-01-04T12:18:43.269Z,12.10
2023-01-04T12:23:46.928Z,12.10
2023-01-04T12:28:53.709Z,12.10
2023-01-04T12:33:59.424Z,12.30
2023-01-04T12:39:22.808Z,12.30
2023-01-04T12:45:00.801Z,12.30
2023-01-04T12:50:08.989Z,12.30
2023-01-04T12:55:28.538Z,12.40
2023-01-04T13:01:05.532Z,12.40
2023-01-04T13:06:13.695Z,12.50
2023-01-04T13:11:37.164Z,12.40
2023-01-04T13:16:46.172Z,12.40
2023-01-04T13:21:52.736Z,12.50
2023-01-04T13:26:56.054Z,12.40
2023-01-04T13:32:07.251Z,12.50
2023-01-04T13:37:18.243Z,12.50
2023-01-04T13:42:26.498Z,12.60
2023-01-04T13:47:30.589Z,12.60
2023-01-04T13:53:05.624Z,12.60
2023-01-04T13:58:01.488Z,12.60
2023-01-04T14:03:14.845Z,12.60
2023-01-04T14:08:28.506Z,12.60
2023-01-04T14:13:31.454Z,12.70
2023-01-04T14:18:34.417Z,12.70
2023-01-04T14:23:38.688Z,12.60
2023-01-04T14:28:49.420Z,12.70
2023-01-04T14:33:54.442Z,12.60
2023-01-04T14:39:09.676Z,12.70
2023-01-04T14:44:14.963Z,12.70
2023-01-04T14:49:19.925Z,12.70
2023-01-04T14:54:25.851Z,12.70
2023-01-04T14:59:30.839Z,12.70
2023-01-04T15:04:33.738Z,12.60
2023-01-04T15:09:38.002Z,12.60
2023-01-04T15:14:40.897Z,12.70
2023-01-04T15:19:43.913Z,12.60
2023-01-04T15:24:48.408Z,12.60
2023-01-04T15:29:51.374Z,12.70
2023-01-04T15:34:54.340Z,12.70
2023-01-04T15:40:02.843Z,12.70
2023-01-04T15:45:07.817Z,12.80
2023-01-04T15:50:11.108Z,12.80
2023-01-04T15:55:15.517Z,12.70
2023-01-04T16:00:18.988Z,12.80
2023-01-04T16:05:24.092Z,12.80
2023-01-04T16:10:28.784Z,12.80
2023-01-04T16:15:32.819Z,12.80
2023-01-04T16:20:35.737Z,12.90
2023-01-04T16:25:45.941Z,12.80
2023-01-04T16:30:55.927Z,12.90
2023-01-04T16:36:09.637Z,12.90
2023-01-04T16:41:16.112Z,12.90
2023-01-04T16:46:23.083Z,12.90
2023-01-04T16:51:28.081Z,12.80
2023-01-04T16:56:33.038Z,13.00
2023-01-04T17:01:40.914Z,12.90
2023-01-04T17:06:52.724Z,12.90
2023-01-04T17:17:24.841Z,12.70
2023-01-04T17:22:34.806Z,12.70
2023-01-04T17:27:39.294Z,12.80
2023-01-04T17:32:42.218Z,12.70
2023-01-04T17:37:45.212Z,12.70
2023-01-04T17:42:49.456Z,12.70
2023-01-04T17:47:53.168Z,12.70
2023-01-04T17:52:58.743Z,12.70
2023-01-04T17:58:07.861Z,12.70
2023-01-04T18:03:14.912Z,12.70
2023-01-04T18:08:18.082Z,12.70
2023-01-04T18:13:23.375Z,12.70
2023-01-04T18:18:26.369Z,12.70
2023-01-04T18:23:30.577Z,12.60
2023-01-04T18:28:35.622Z,12.60
2023-01-04T18:33:38.707Z,12.50
2023-01-04T18:38:42.869Z,12.50
2023-01-04T18:44:05.765Z,12.40
2023-01-04T18:49:12.564Z,12.50
2023-01-04T18:54:20.529Z,12.40
2023-01-04T18:59:24.980Z,12.50
2023-01-04T19:04:28.805Z,12.50
2023-01-04T19:09:31.966Z,12.60
2023-01-04T19:14:36.176Z,12.60
2023-01-04T19:19:39.141Z,12.70
2023-01-04T19:24:42.274Z,12.70
2023-01-04T19:29:46.569Z,12.70
2023-01-04T19:34:49.466Z,12.80
2023-01-04T19:39:53.474Z,12.80
2023-01-04T19:44:57.708Z,12.90
2023-01-04T19:50:01.544Z,12.90
2023-01-04T19:55:06.023Z,12.80
2023-01-04T20:00:17.051Z,12.90
2023-01-04T20:05:19.971Z,13.00
2023-01-04T20:10:22.874Z,13.00
2023-01-04T20:15:27.213Z,13.00
2023-01-04T20:20:30.065Z,13.10
2023-01-04T20:25:33.017Z,13.10
2023-01-04T20:30:37.389Z,13.20
2023-01-04T20:35:41.801Z,13.20
2023-01-04T20:40:44.760Z,13.30
2023-01-04T20:45:49.660Z,13.20
2023-01-04T20:50:52.848Z,13.20
2023-01-04T20:55:55.755Z,13.20
2023-01-04T21:01:03.753Z,13.30
2023-01-04T21:06:08.643Z,13.30
2023-01-04T21:11:13.076Z,13.30
2023-01-04T21:16:17.453Z,13.30
2023-01-04T21:21:20.985Z,13.30
2023-01-04T21:26:24.059Z,13.30
2023-01-04T21:31:28.323Z,13.40
2023-01-04T21:36:31.338Z,13.40
2023-01-04T21:41:35.373Z,13.50
2023-01-04T21:46:39.672Z,13.40
2023-01-04T21:51:42.575Z,13.50
2023-01-04T21:56:46.420Z,13.40
2023-01-04T22:01:50.745Z,13.40
2023-01-04T22:06:53.678Z,13.50
2023-01-04T22:11:56.579Z,13.50
2023-01-04T22:17:00.816Z,13.50
2023-01-04T22:22:03.754Z,13.50
2023-01-04T22:27:06.688Z,13.50
2023-01-04T22:32:10.897Z,13.60
2023-01-04T22:37:13.826Z,13.60
2023-01-04T22:42:16.726Z,13.70
2023-01-04T22:47:21.071Z,13.70
2023-01-04T22:52:24.018Z,13.70
2023-01-04T22:57:27.066Z,13.70
2023-01-04T23:02:31.330Z,13.70
2023-01-04T23:07:34.362Z,13.60
2023-01-04T23:12:38.359Z,13.70
2023-01-04T23:17:42.583Z,13.70
2023-01-04T23:22:45.466Z,13.60
2023-01-04T23:27:48.403Z,13.70
2023-01-04T23:32:52.615Z,13.70
2023-01-04T23:37:55.503Z,13.60
2023-01-04T23:42:59.541Z,13.60
2023-01-04T23:48:03.889Z,13.50
2023-01-04T23:53:06.803Z,13.50
2023-01-04T23:58:09.699Z,13.50
